sensor_id;sensor_type;location;lat;lon;timestamp;P1;durP1;ratioP1;P2;durP2;ratioP2
24163;SDS011;12319;49.204;8.116;2024-01-15T00:01:55;15.63;;;5.13;;
24163;SDS011;12319;49.204;8.116;2024-01-15T00:04:21;19.08;;;6.85;;
24163;SDS011;12319;49.204;8.116;2024-01-15T00:06:46;14.43;;;5.03;;
24163;SDS011;12319;49.204;8.116;2024-01-15T00:09:12;20.83;;;4.78;;
24163;SDS011;12319;49.204;8.116;2024-01-15T00:11:38;10.47;;;5.07;;
24163;SDS011;12319;49.204;8.116;2024-01-15T00:14:04;15.05;;;6.45;;
24163;SDS011;12319;49.204;8.116;2024-01-15T00:16:30;13.73;;;4.95;;
24163;SDS011;12319;49.204;8.116;2024-01-15T00:18:56;24.90;;;8.48;;
24163;SDS011;12319;49.204;8.116;2024-01-15T00:21:21;12.48;;;5.70;;
24163;SDS011;12319;49.204;8.116;2024-01-15T00:23:48;20.30;;;6.70;;
24163;SDS011;12319;49.204;8.116;2024-01-15T00:26:14;13.10;;;5.50;;
24163;SDS011;12319;49.204;8.116;2024-01-15T00:28:40;24.42;;;8.73;;
24163;SDS011;12319;49.204;8.116;2024-01-15T00:31:06;14.77;;;5.45;;
24163;SDS011;12319;49.204;8.116;2024-01-15T00:33:32;16.45;;;5.88;;
24163;SDS011;12319;49.204;8.116;2024-01-15T00:35:58;23.20;;;8.03;;
24163;SDS011;12319;49.204;8.116;2024-01-15T00:38:24;18.52;;;7.30;;
24163;SDS011;12319;49.204;8.116;2024-01-15T00:40:50;17.17;;;5.35;;
24163;SDS011;12319;49.204;8.116;2024-01-15T00:43:16;16.77;;;5.78;;
24163;SDS011;12319;49.204;8.116;2024-01-15T00:45:43;12.70;;;4.73;;
24163;SDS011;12319;49.204;8.116;2024-01-15T00:48:09;18.42;;;4.97;;
24163;SDS011;12319;49.204;8.116;2024-01-15T00:50:35;22.35;;;7.55;;
24163;SDS011;12319;49.204;8.116;2024-01-15T00:53:01;14.53;;;4.93;;
24163;SDS011;12319;49.204;8.116;2024-01-15T00:55:28;15.70;;;5.75;;
24163;SDS011;12319;49.204;8.116;2024-01-15T00:57:54;13.55;;;4.07;;
24163;SDS011;12319;49.204;8.116;2024-01-15T01:00:20;14.33;;;5.80;;
24163;SDS011;12319;49.204;8.116;2024-01-15T01:02:46;23.20;;;6.10;;
24163;SDS011;12319;49.204;8.116;2024-01-15T01:05:12;15.48;;;5.18;;
24163;SDS011;12319;49.204;8.116;2024-01-15T01:07:38;14.63;;;5.90;;
24163;SDS011;12319;49.204;8.116;2024-01-15T01:10:04;23.30;;;6.63;;
24163;SDS011;12319;49.204;8.116;2024-01-15T01:12:30;15.02;;;6.13;;
24163;SDS011;12319;49.204;8.116;2024-01-15T01:14:56;15.93;;;5.18;;
24163;SDS011;12319;49.204;8.116;2024-01-15T01:17:22;14.30;;;4.88;;
24163;SDS011;12319;49.204;8.116;2024-01-15T01:19:49;11.40;;;4.22;;
24163;SDS011;12319;49.204;8.116;2024-01-15T01:22:15;16.02;;;5.88;;
24163;SDS011;12319;49.204;8.116;2024-01-15T01:24:41;16.08;;;5.65;;
24163;SDS011;12319;49.204;8.116;2024-01-15T01:27:07;10.30;;;4.20;;
24163;SDS011;12319;49.204;8.116;2024-01-15T01:29:32;17.50;;;4.90;;
24163;SDS011;12319;49.204;8.116;2024-01-15T01:31:58;12.77;;;5.07;;
24163;SDS011;12319;49.204;8.116;2024-01-15T01:34:24;15.00;;;4.65;;
24163;SDS011;12319;49.204;8.116;2024-01-15T01:36:50;18.57;;;6.30;;
24163;SDS011;12319;49.204;8.116;2024-01-15T01:39:16;15.73;;;5.88;;
24163;SDS011;12319;49.204;8.116;2024-01-15T01:41:41;10.00;;;4.20;;
24163;SDS011;12319;49.204;8.116;2024-01-15T01:44:07;15.10;;;4.68;;
24163;SDS011;12319;49.204;8.116;2024-01-15T01:46:33;12.68;;;4.45;;
24163;SDS011;12319;49.204;8.116;2024-01-15T01:48:59;13.77;;;4.72;;
24163;SDS011;12319;49.204;8.116;2024-01-15T01:51:30;17.77;;;4.90;;
24163;SDS011;12319;49.204;8.116;2024-01-15T01:53:56;14.38;;;5.03;;
24163;SDS011;12319;49.204;8.116;2024-01-15T01:56:22;15.97;;;5.57;;
24163;SDS011;12319;49.204;8.116;2024-01-15T01:58:48;15.32;;;5.75;;
24163;SDS011;12319;49.204;8.116;2024-01-15T02:01:14;13.35;;;4.95;;
24163;SDS011;12319;49.204;8.116;2024-01-15T02:03:40;15.48;;;5.28;;
24163;SDS011;12319;49.204;8.116;2024-01-15T02:06:07;13.90;;;4.33;;
24163;SDS011;12319;49.204;8.116;2024-01-15T02:08:33;15.48;;;7.25;;
24163;SDS011;12319;49.204;8.116;2024-01-15T02:10:59;20.98;;;6.15;;
24163;SDS011;12319;49.204;8.116;2024-01-15T02:13:25;15.98;;;5.55;;
24163;SDS011;12319;49.204;8.116;2024-01-15T02:15:51;14.33;;;4.93;;
24163;SDS011;12319;49.204;8.116;2024-01-15T02:18:17;12.85;;;5.32;;
24163;SDS011;12319;49.204;8.116;2024-01-15T02:20:43;14.27;;;5.37;;
24163;SDS011;12319;49.204;8.116;2024-01-15T02:23:09;15.25;;;5.05;;
24163;SDS011;12319;49.204;8.116;2024-01-15T02:25:45;14.05;;;5.05;;
24163;SDS011;12319;49.204;8.116;2024-01-15T02:28:12;11.50;;;4.22;;
24163;SDS011;12319;49.204;8.116;2024-01-15T02:30:39;13.70;;;5.03;;
24163;SDS011;12319;49.204;8.116;2024-01-15T02:33:09;14.50;;;5.17;;
24163;SDS011;12319;49.204;8.116;2024-01-15T02:35:36;11.07;;;4.82;;
24163;SDS011;12319;49.204;8.116;2024-01-15T02:38:02;13.63;;;4.85;;
24163;SDS011;12319;49.204;8.116;2024-01-15T02:40:29;13.10;;;4.40;;
24163;SDS011;12319;49.204;8.116;2024-01-15T02:42:55;15.98;;;5.70;;
24163;SDS011;12319;49.204;8.116;2024-01-15T02:45:21;10.97;;;4.63;;
24163;SDS011;12319;49.204;8.116;2024-01-15T02:47:47;17.00;;;4.90;;
24163;SDS011;12319;49.204;8.116;2024-01-15T02:50:14;14.57;;;5.18;;
24163;SDS011;12319;49.204;8.116;2024-01-15T02:52:40;12.30;;;4.97;;
24163;SDS011;12319;49.204;8.116;2024-01-15T02:55:06;11.10;;;4.40;;
24163;SDS011;12319;49.204;8.116;2024-01-15T02:57:32;14.57;;;4.93;;
24163;SDS011;12319;49.204;8.116;2024-01-15T02:59:57;10.55;;;4.63;;
24163;SDS011;12319;49.204;8.116;2024-01-15T03:02:23;20.55;;;4.53;;
24163;SDS011;12319;49.204;8.116;2024-01-15T03:04:49;11.50;;;4.47;;
24163;SDS011;12319;49.204;8.116;2024-01-15T03:07:15;10.65;;;3.70;;
24163;SDS011;12319;49.204;8.116;2024-01-15T03:09:41;14.30;;;4.70;;
24163;SDS011;12319;49.204;8.116;2024-01-15T03:12:07;14.50;;;4.65;;
24163;SDS011;12319;49.204;8.116;2024-01-15T03:14:33;12.27;;;4.53;;
24163;SDS011;12319;49.204;8.116;2024-01-15T03:16:58;10.82;;;4.40;;
24163;SDS011;12319;49.204;8.116;2024-01-15T03:19:25;12.32;;;4.65;;
24163;SDS011;12319;49.204;8.116;2024-01-15T03:21:51;7.07;;;2.97;;
24163;SDS011;12319;49.204;8.116;2024-01-15T03:24:17;11.80;;;4.65;;
24163;SDS011;12319;49.204;8.116;2024-01-15T03:26:43;14.27;;;4.67;;
24163;SDS011;12319;49.204;8.116;2024-01-15T03:29:09;15.65;;;4.40;;
24163;SDS011;12319;49.204;8.116;2024-01-15T03:31:35;8.73;;;3.65;;
24163;SDS011;12319;49.204;8.116;2024-01-15T03:34:01;12.70;;;5.15;;
24163;SDS011;12319;49.204;8.116;2024-01-15T03:36:27;12.40;;;4.80;;
24163;SDS011;12319;49.204;8.116;2024-01-15T03:38:53;11.35;;;4.18;;
24163;SDS011;12319;49.204;8.116;2024-01-15T03:41:19;13.68;;;4.53;;
24163;SDS011;12319;49.204;8.116;2024-01-15T03:43:45;17.60;;;4.73;;
24163;SDS011;12319;49.204;8.116;2024-01-15T03:46:10;9.98;;;3.83;;
24163;SDS011;12319;49.204;8.116;2024-01-15T03:48:37;9.07;;;3.85;;
24163;SDS011;12319;49.204;8.116;2024-01-15T03:51:03;16.48;;;4.40;;
24163;SDS011;12319;49.204;8.116;2024-01-15T03:53:29;11.47;;;3.60;;
24163;SDS011;12319;49.204;8.116;2024-01-15T03:55:55;13.98;;;4.80;;
24163;SDS011;12319;49.204;8.116;2024-01-15T03:58:21;8.75;;;3.65;;
24163;SDS011;12319;49.204;8.116;2024-01-15T04:00:48;10.67;;;4.40;;
24163;SDS011;12319;49.204;8.116;2024-01-15T04:03:14;16.60;;;5.88;;
24163;SDS011;12319;49.204;8.116;2024-01-15T04:05:41;12.18;;;4.60;;
24163;SDS011;12319;49.204;8.116;2024-01-15T04:08:07;18.23;;;5.88;;
24163;SDS011;12319;49.204;8.116;2024-01-15T04:10:33;13.93;;;4.83;;
24163;SDS011;12319;49.204;8.116;2024-01-15T04:12:58;14.63;;;5.50;;
24163;SDS011;12319;49.204;8.116;2024-01-15T04:15:25;9.95;;;4.57;;
24163;SDS011;12319;49.204;8.116;2024-01-15T04:17:51;18.75;;;5.72;;
24163;SDS011;12319;49.204;8.116;2024-01-15T04:20:17;10.47;;;4.27;;
24163;SDS011;12319;49.204;8.116;2024-01-15T04:22:43;17.23;;;6.57;;
24163;SDS011;12319;49.204;8.116;2024-01-15T04:25:09;12.25;;;5.10;;
24163;SDS011;12319;49.204;8.116;2024-01-15T04:27:35;14.02;;;4.75;;
24163;SDS011;12319;49.204;8.116;2024-01-15T04:30:01;16.97;;;6.53;;
24163;SDS011;12319;49.204;8.116;2024-01-15T04:32:26;16.55;;;4.95;;
24163;SDS011;12319;49.204;8.116;2024-01-15T04:34:52;17.30;;;5.17;;
24163;SDS011;12319;49.204;8.116;2024-01-15T04:37:18;15.70;;;5.07;;
24163;SDS011;12319;49.204;8.116;2024-01-15T04:39:44;11.77;;;5.30;;
24163;SDS011;12319;49.204;8.116;2024-01-15T04:42:10;18.60;;;6.87;;
24163;SDS011;12319;49.204;8.116;2024-01-15T04:44:36;14.70;;;5.43;;
24163;SDS011;12319;49.204;8.116;2024-01-15T04:47:02;17.70;;;5.10;;
24163;SDS011;12319;49.204;8.116;2024-01-15T04:49:28;14.70;;;5.00;;
24163;SDS011;12319;49.204;8.116;2024-01-15T04:51:55;12.80;;;5.10;;
24163;SDS011;12319;49.204;8.116;2024-01-15T04:54:21;13.15;;;5.18;;
24163;SDS011;12319;49.204;8.116;2024-01-15T04:56:47;11.77;;;4.78;;
24163;SDS011;12319;49.204;8.116;2024-01-15T04:59:13;11.73;;;3.97;;
24163;SDS011;12319;49.204;8.116;2024-01-15T05:01:39;9.67;;;3.73;;
24163;SDS011;12319;49.204;8.116;2024-01-15T05:04:05;10.93;;;4.60;;
24163;SDS011;12319;49.204;8.116;2024-01-15T05:06:31;9.25;;;4.40;;
24163;SDS011;12319;49.204;8.116;2024-01-15T05:08:57;12.07;;;5.33;;
24163;SDS011;12319;49.204;8.116;2024-01-15T05:11:22;12.40;;;4.95;;
24163;SDS011;12319;49.204;8.116;2024-01-15T05:13:48;17.03;;;5.87;;
24163;SDS011;12319;49.204;8.116;2024-01-15T05:16:14;19.50;;;5.95;;
24163;SDS011;12319;49.204;8.116;2024-01-15T05:18:40;14.73;;;4.82;;
24163;SDS011;12319;49.204;8.116;2024-01-15T05:21:06;14.25;;;5.30;;
24163;SDS011;12319;49.204;8.116;2024-01-15T05:23:32;17.43;;;5.40;;
24163;SDS011;12319;49.204;8.116;2024-01-15T05:25:58;19.95;;;6.18;;
24163;SDS011;12319;49.204;8.116;2024-01-15T05:28:23;10.23;;;4.30;;
24163;SDS011;12319;49.204;8.116;2024-01-15T05:30:49;13.20;;;4.80;;
24163;SDS011;12319;49.204;8.116;2024-01-15T05:33:16;8.63;;;4.18;;
24163;SDS011;12319;49.204;8.116;2024-01-15T05:35:42;17.17;;;6.13;;
24163;SDS011;12319;49.204;8.116;2024-01-15T05:38:08;14.45;;;5.10;;
24163;SDS011;12319;49.204;8.116;2024-01-15T05:40:34;11.27;;;4.95;;
24163;SDS011;12319;49.204;8.116;2024-01-15T05:43:00;17.23;;;4.68;;
24163;SDS011;12319;49.204;8.116;2024-01-15T05:45:26;13.13;;;4.72;;
24163;SDS011;12319;49.204;8.116;2024-01-15T05:47:52;13.13;;;4.78;;
24163;SDS011;12319;49.204;8.116;2024-01-15T05:50:17;17.00;;;5.30;;
24163;SDS011;12319;49.204;8.116;2024-01-15T05:52:43;12.02;;;4.43;;
24163;SDS011;12319;49.204;8.116;2024-01-15T05:55:09;13.55;;;5.13;;
24163;SDS011;12319;49.204;8.116;2024-01-15T05:57:35;15.57;;;4.47;;
24163;SDS011;12319;49.204;8.116;2024-01-15T06:00:02;12.82;;;4.82;;
24163;SDS011;12319;49.204;8.116;2024-01-15T06:02:28;20.92;;;6.45;;
24163;SDS011;12319;49.204;8.116;2024-01-15T06:04:54;14.70;;;4.70;;
24163;SDS011;12319;49.204;8.116;2024-01-15T06:07:20;18.20;;;5.67;;
24163;SDS011;12319;49.204;8.116;2024-01-15T06:09:46;16.70;;;5.82;;
24163;SDS011;12319;49.204;8.116;2024-01-15T06:12:12;13.68;;;5.00;;
24163;SDS011;12319;49.204;8.116;2024-01-15T06:14:38;13.77;;;4.97;;
24163;SDS011;12319;49.204;8.116;2024-01-15T06:17:03;16.65;;;5.53;;
24163;SDS011;12319;49.204;8.116;2024-01-15T06:19:29;13.73;;;4.77;;
24163;SDS011;12319;49.204;8.116;2024-01-15T06:21:55;12.40;;;5.05;;
24163;SDS011;12319;49.204;8.116;2024-01-15T06:24:21;13.80;;;4.80;;
24163;SDS011;12319;49.204;8.116;2024-01-15T06:26:47;14.57;;;5.45;;
24163;SDS011;12319;49.204;8.116;2024-01-15T06:29:13;15.38;;;5.70;;
24163;SDS011;12319;49.204;8.116;2024-01-15T06:31:39;12.35;;;4.75;;
24163;SDS011;12319;49.204;8.116;2024-01-15T06:34:04;12.23;;;4.57;;
24163;SDS011;12319;49.204;8.116;2024-01-15T06:36:30;17.48;;;5.22;;
24163;SDS011;12319;49.204;8.116;2024-01-15T06:38:56;16.13;;;4.47;;
24163;SDS011;12319;49.204;8.116;2024-01-15T06:41:22;12.52;;;4.15;;
24163;SDS011;12319;49.204;8.116;2024-01-15T06:43:49;12.10;;;4.93;;
24163;SDS011;12319;49.204;8.116;2024-01-15T06:46:21;11.23;;;4.43;;
24163;SDS011;12319;49.204;8.116;2024-01-15T06:48:47;12.85;;;5.47;;
24163;SDS011;12319;49.204;8.116;2024-01-15T06:51:13;11.60;;;4.60;;
24163;SDS011;12319;49.204;8.116;2024-01-15T06:53:39;9.83;;;4.07;;
24163;SDS011;12319;49.204;8.116;2024-01-15T06:56:05;8.50;;;3.65;;
24163;SDS011;12319;49.204;8.116;2024-01-15T06:58:31;13.00;;;4.10;;
24163;SDS011;12319;49.204;8.116;2024-01-15T07:00:57;9.43;;;4.20;;
24163;SDS011;12319;49.204;8.116;2024-01-15T07:03:23;12.90;;;4.22;;
24163;SDS011;12319;49.204;8.116;2024-01-15T07:05:49;9.40;;;3.90;;
24163;SDS011;12319;49.204;8.116;2024-01-15T07:08:15;9.50;;;4.40;;
24163;SDS011;12319;49.204;8.116;2024-01-15T07:10:41;9.73;;;4.05;;
24163;SDS011;12319;49.204;8.116;2024-01-15T07:13:07;13.80;;;5.03;;
24163;SDS011;12319;49.204;8.116;2024-01-15T07:15:33;12.18;;;4.03;;
24163;SDS011;12319;49.204;8.116;2024-01-15T07:17:58;13.23;;;4.27;;
24163;SDS011;12319;49.204;8.116;2024-01-15T07:20:24;9.90;;;3.83;;
24163;SDS011;12319;49.204;8.116;2024-01-15T07:22:50;16.43;;;6.13;;
24163;SDS011;12319;49.204;8.116;2024-01-15T07:25:16;7.43;;;3.60;;
24163;SDS011;12319;49.204;8.116;2024-01-15T07:27:42;12.38;;;4.32;;
24163;SDS011;12319;49.204;8.116;2024-01-15T07:30:10;10.80;;;4.10;;
24163;SDS011;12319;49.204;8.116;2024-01-15T07:32:37;13.40;;;4.60;;
24163;SDS011;12319;49.204;8.116;2024-01-15T07:35:03;8.80;;;3.30;;
24163;SDS011;12319;49.204;8.116;2024-01-15T07:37:29;9.35;;;3.55;;
24163;SDS011;12319;49.204;8.116;2024-01-15T07:39:54;10.93;;;4.40;;
24163;SDS011;12319;49.204;8.116;2024-01-15T07:42:20;9.90;;;4.10;;
24163;SDS011;12319;49.204;8.116;2024-01-15T07:44:45;9.52;;;3.47;;
24163;SDS011;12319;49.204;8.116;2024-01-15T07:47:12;12.88;;;3.60;;
24163;SDS011;12319;49.204;8.116;2024-01-15T07:49:37;9.63;;;3.43;;
24163;SDS011;12319;49.204;8.116;2024-01-15T07:52:03;6.82;;;3.08;;
24163;SDS011;12319;49.204;8.116;2024-01-15T07:54:32;6.57;;;3.20;;
24163;SDS011;12319;49.204;8.116;2024-01-15T07:59:24;9.85;;;3.97;;
24163;SDS011;12319;49.204;8.116;2024-01-15T08:01:50;9.05;;;3.58;;
24163;SDS011;12319;49.204;8.116;2024-01-15T08:04:16;7.72;;;3.15;;
24163;SDS011;12319;49.204;8.116;2024-01-15T08:06:42;9.13;;;3.10;;
24163;SDS011;12319;49.204;8.116;2024-01-15T08:09:08;9.87;;;3.30;;
24163;SDS011;12319;49.204;8.116;2024-01-15T08:11:34;7.43;;;2.92;;
24163;SDS011;12319;49.204;8.116;2024-01-15T08:14:01;13.90;;;3.90;;
24163;SDS011;12319;49.204;8.116;2024-01-15T08:16:27;9.70;;;3.63;;
24163;SDS011;12319;49.204;8.116;2024-01-15T08:18:53;8.48;;;3.15;;
24163;SDS011;12319;49.204;8.116;2024-01-15T08:21:19;8.68;;;3.35;;
24163;SDS011;12319;49.204;8.116;2024-01-15T08:23:45;12.02;;;5.10;;
24163;SDS011;12319;49.204;8.116;2024-01-15T08:26:11;8.95;;;4.25;;
24163;SDS011;12319;49.204;8.116;2024-01-15T08:28:37;11.40;;;4.35;;
24163;SDS011;12319;49.204;8.116;2024-01-15T08:31:03;10.68;;;3.83;;
24163;SDS011;12319;49.204;8.116;2024-01-15T08:33:29;13.93;;;4.45;;
24163;SDS011;12319;49.204;8.116;2024-01-15T08:35:55;11.15;;;3.72;;
24163;SDS011;12319;49.204;8.116;2024-01-15T08:38:21;5.78;;;2.70;;
24163;SDS011;12319;49.204;8.116;2024-01-15T08:40:46;12.07;;;4.17;;
24163;SDS011;12319;49.204;8.116;2024-01-15T08:43:12;14.65;;;5.30;;
24163;SDS011;12319;49.204;8.116;2024-01-15T08:45:38;11.37;;;3.80;;
24163;SDS011;12319;49.204;8.116;2024-01-15T08:48:04;8.60;;;3.17;;
24163;SDS011;12319;49.204;8.116;2024-01-15T08:50:31;9.75;;;3.42;;
24163;SDS011;12319;49.204;8.116;2024-01-15T08:52:57;6.50;;;3.33;;
24163;SDS011;12319;49.204;8.116;2024-01-15T08:55:23;9.47;;;4.00;;
24163;SDS011;12319;49.204;8.116;2024-01-15T08:57:48;7.55;;;3.45;;
24163;SDS011;12319;49.204;8.116;2024-01-15T09:00:14;11.87;;;4.33;;
24163;SDS011;12319;49.204;8.116;2024-01-15T09:02:40;9.98;;;3.55;;
24163;SDS011;12319;49.204;8.116;2024-01-15T09:05:06;8.38;;;3.75;;
24163;SDS011;12319;49.204;8.116;2024-01-15T09:07:32;9.82;;;3.80;;
24163;SDS011;12319;49.204;8.116;2024-01-15T09:09:57;8.17;;;2.97;;
24163;SDS011;12319;49.204;8.116;2024-01-15T09:12:24;8.52;;;3.30;;
24163;SDS011;12319;49.204;8.116;2024-01-15T09:14:53;10.07;;;4.37;;
24163;SDS011;12319;49.204;8.116;2024-01-15T09:17:19;6.97;;;3.40;;
24163;SDS011;12319;49.204;8.116;2024-01-15T09:19:45;7.72;;;3.67;;
24163;SDS011;12319;49.204;8.116;2024-01-15T09:22:12;6.30;;;2.87;;
24163;SDS011;12319;49.204;8.116;2024-01-15T09:24:39;9.15;;;3.13;;
24163;SDS011;12319;49.204;8.116;2024-01-15T09:27:06;8.20;;;3.72;;
24163;SDS011;12319;49.204;8.116;2024-01-15T09:29:32;7.03;;;2.88;;
24163;SDS011;12319;49.204;8.116;2024-01-15T09:31:58;6.80;;;2.80;;
24163;SDS011;12319;49.204;8.116;2024-01-15T09:34:24;9.05;;;3.67;;
24163;SDS011;12319;49.204;8.116;2024-01-15T09:36:49;7.88;;;3.17;;
24163;SDS011;12319;49.204;8.116;2024-01-15T09:39:15;8.70;;;3.23;;
24163;SDS011;12319;49.204;8.116;2024-01-15T09:41:41;10.85;;;4.05;;
24163;SDS011;12319;49.204;8.116;2024-01-15T09:44:07;9.53;;;3.53;;
24163;SDS011;12319;49.204;8.116;2024-01-15T09:46:34;9.73;;;3.83;;
24163;SDS011;12319;49.204;8.116;2024-01-15T09:49:00;14.50;;;4.57;;
24163;SDS011;12319;49.204;8.116;2024-01-15T09:51:30;8.65;;;3.15;;
24163;SDS011;12319;49.204;8.116;2024-01-15T09:53:57;10.90;;;3.60;;
24163;SDS011;12319;49.204;8.116;2024-01-15T09:56:23;6.13;;;2.92;;
24163;SDS011;12319;49.204;8.116;2024-01-15T09:58:49;9.35;;;3.25;;
24163;SDS011;12319;49.204;8.116;2024-01-15T10:01:20;9.75;;;2.90;;
24163;SDS011;12319;49.204;8.116;2024-01-15T10:03:46;6.95;;;2.83;;
24163;SDS011;12319;49.204;8.116;2024-01-15T10:06:15;7.40;;;2.90;;
24163;SDS011;12319;49.204;8.116;2024-01-15T10:08:50;8.18;;;3.30;;
24163;SDS011;12319;49.204;8.116;2024-01-15T10:11:16;12.55;;;4.22;;
24163;SDS011;12319;49.204;8.116;2024-01-15T10:13:45;10.38;;;4.38;;
24163;SDS011;12319;49.204;8.116;2024-01-15T10:16:11;12.63;;;4.97;;
24163;SDS011;12319;49.204;8.116;2024-01-15T10:18:37;9.13;;;3.90;;
24163;SDS011;12319;49.204;8.116;2024-01-15T10:21:05;11.63;;;5.10;;
24163;SDS011;12319;49.204;8.116;2024-01-15T10:23:32;11.90;;;4.47;;
24163;SDS011;12319;49.204;8.116;2024-01-15T10:25:58;9.95;;;3.78;;
24163;SDS011;12319;49.204;8.116;2024-01-15T10:28:28;10.82;;;4.40;;
24163;SDS011;12319;49.204;8.116;2024-01-15T10:30:56;12.75;;;4.80;;
24163;SDS011;12319;49.204;8.116;2024-01-15T10:33:22;11.27;;;4.77;;
24163;SDS011;12319;49.204;8.116;2024-01-15T10:35:54;11.48;;;4.82;;
24163;SDS011;12319;49.204;8.116;2024-01-15T10:38:24;8.93;;;3.60;;
24163;SDS011;12319;49.204;8.116;2024-01-15T10:40:51;13.65;;;4.90;;
24163;SDS011;12319;49.204;8.116;2024-01-15T10:43:17;11.13;;;4.20;;
24163;SDS011;12319;49.204;8.116;2024-01-15T10:45:44;9.02;;;3.80;;
24163;SDS011;12319;49.204;8.116;2024-01-15T10:48:10;13.02;;;5.10;;
24163;SDS011;12319;49.204;8.116;2024-01-15T10:50:36;10.40;;;4.55;;
24163;SDS011;12319;49.204;8.116;2024-01-15T10:53:02;6.55;;;2.95;;
24163;SDS011;12319;49.204;8.116;2024-01-15T10:55:29;8.33;;;3.27;;
24163;SDS011;12319;49.204;8.116;2024-01-15T10:57:57;11.48;;;4.22;;
24163;SDS011;12319;49.204;8.116;2024-01-15T11:00:22;9.23;;;3.40;;
24163;SDS011;12319;49.204;8.116;2024-01-15T11:02:50;8.77;;;3.22;;
24163;SDS011;12319;49.204;8.116;2024-01-15T11:05:16;9.40;;;3.65;;
24163;SDS011;12319;49.204;8.116;2024-01-15T11:07:47;6.60;;;2.70;;
24163;SDS011;12319;49.204;8.116;2024-01-15T11:18:40;8.43;;;3.37;;
24163;SDS011;12319;49.204;8.116;2024-01-15T11:21:21;9.55;;;3.10;;
24163;SDS011;12319;49.204;8.116;2024-01-15T11:23:55;7.88;;;3.30;;
24163;SDS011;12319;49.204;8.116;2024-01-15T11:31:56;7.30;;;2.90;;
24163;SDS011;12319;49.204;8.116;2024-01-15T11:34:22;6.38;;;2.72;;
24163;SDS011;12319;49.204;8.116;2024-01-15T11:37:29;7.05;;;2.35;;
24163;SDS011;12319;49.204;8.116;2024-01-15T11:40:17;5.90;;;2.50;;
24163;SDS011;12319;49.204;8.116;2024-01-15T11:42:44;6.05;;;2.88;;
24163;SDS011;12319;49.204;8.116;2024-01-15T11:45:10;6.47;;;2.90;;
24163;SDS011;12319;49.204;8.116;2024-01-15T11:50:22;5.10;;;2.58;;
24163;SDS011;12319;49.204;8.116;2024-01-15T11:52:56;6.55;;;2.85;;
24163;SDS011;12319;49.204;8.116;2024-01-15T11:55:35;6.65;;;3.03;;
24163;SDS011;12319;49.204;8.116;2024-01-15T11:58:04;6.87;;;3.07;;
24163;SDS011;12319;49.204;8.116;2024-01-15T12:00:34;5.50;;;2.90;;
24163;SDS011;12319;49.204;8.116;2024-01-15T12:03:04;5.43;;;2.60;;
24163;SDS011;12319;49.204;8.116;2024-01-15T12:05:30;6.82;;;2.78;;
24163;SDS011;12319;49.204;8.116;2024-01-15T12:07:56;7.22;;;3.53;;
24163;SDS011;12319;49.204;8.116;2024-01-15T12:10:22;8.10;;;3.13;;
24163;SDS011;12319;49.204;8.116;2024-01-15T12:15:37;7.05;;;2.97;;
24163;SDS011;12319;49.204;8.116;2024-01-15T12:18:06;6.30;;;2.90;;
24163;SDS011;12319;49.204;8.116;2024-01-15T12:20:33;7.85;;;3.58;;
24163;SDS011;12319;49.204;8.116;2024-01-15T12:22:59;8.23;;;3.13;;
24163;SDS011;12319;49.204;8.116;2024-01-15T12:25:25;7.13;;;2.92;;
24163;SDS011;12319;49.204;8.116;2024-01-15T12:27:52;5.97;;;3.05;;
24163;SDS011;12319;49.204;8.116;2024-01-15T12:30:18;7.30;;;3.15;;
24163;SDS011;12319;49.204;8.116;2024-01-15T12:32:44;6.45;;;3.40;;
24163;SDS011;12319;49.204;8.116;2024-01-15T12:35:12;7.87;;;3.53;;
24163;SDS011;12319;49.204;8.116;2024-01-15T12:37:41;8.43;;;3.45;;
24163;SDS011;12319;49.204;8.116;2024-01-15T12:40:08;6.45;;;3.15;;
24163;SDS011;12319;49.204;8.116;2024-01-15T12:42:41;7.40;;;3.80;;
24163;SDS011;12319;49.204;8.116;2024-01-15T12:45:07;5.85;;;3.05;;
24163;SDS011;12319;49.204;8.116;2024-01-15T12:47:34;8.00;;;3.13;;
24163;SDS011;12319;49.204;8.116;2024-01-15T12:50:00;7.18;;;3.25;;
24163;SDS011;12319;49.204;8.116;2024-01-15T12:52:29;6.45;;;3.22;;
24163;SDS011;12319;49.204;8.116;2024-01-15T12:54:54;7.20;;;3.00;;
24163;SDS011;12319;49.204;8.116;2024-01-15T12:57:20;7.45;;;3.33;;
24163;SDS011;12319;49.204;8.116;2024-01-15T12:59:46;6.82;;;2.83;;
24163;SDS011;12319;49.204;8.116;2024-01-15T13:02:12;7.50;;;3.40;;
24163;SDS011;12319;49.204;8.116;2024-01-15T13:04:38;6.95;;;3.53;;
24163;SDS011;12319;49.204;8.116;2024-01-15T13:07:05;7.57;;;3.53;;
24163;SDS011;12319;49.204;8.116;2024-01-15T13:09:31;5.40;;;2.80;;
24163;SDS011;12319;49.204;8.116;2024-01-15T13:11:57;8.90;;;3.08;;
24163;SDS011;12319;49.204;8.116;2024-01-15T13:14:23;6.80;;;2.87;;
24163;SDS011;12319;49.204;8.116;2024-01-15T13:16:49;5.00;;;2.50;;
24163;SDS011;12319;49.204;8.116;2024-01-15T13:19:16;5.78;;;2.90;;
24163;SDS011;12319;49.204;8.116;2024-01-15T13:21:42;6.28;;;2.90;;
24163;SDS011;12319;49.204;8.116;2024-01-15T13:24:08;6.47;;;3.47;;
24163;SDS011;12319;49.204;8.116;2024-01-15T13:26:35;6.28;;;3.53;;
24163;SDS011;12319;49.204;8.116;2024-01-15T13:29:03;7.45;;;3.40;;
24163;SDS011;12319;49.204;8.116;2024-01-15T13:31:32;6.53;;;3.13;;
24163;SDS011;12319;49.204;8.116;2024-01-15T13:33:58;7.43;;;3.08;;
24163;SDS011;12319;49.204;8.116;2024-01-15T13:36:24;7.47;;;4.37;;
24163;SDS011;12319;49.204;8.116;2024-01-15T13:38:51;8.63;;;4.60;;
24163;SDS011;12319;49.204;8.116;2024-01-15T13:41:18;6.82;;;3.53;;
24163;SDS011;12319;49.204;8.116;2024-01-15T13:43:48;6.65;;;3.40;;
24163;SDS011;12319;49.204;8.116;2024-01-15T13:46:15;7.00;;;3.37;;
24163;SDS011;12319;49.204;8.116;2024-01-15T13:48:42;6.75;;;3.10;;
24163;SDS011;12319;49.204;8.116;2024-01-15T13:51:08;6.20;;;2.80;;
24163;SDS011;12319;49.204;8.116;2024-01-15T13:53:33;4.77;;;2.47;;
24163;SDS011;12319;49.204;8.116;2024-01-15T13:55:59;5.55;;;2.40;;
24163;SDS011;12319;49.204;8.116;2024-01-15T13:58:25;6.28;;;3.05;;
24163;SDS011;12319;49.204;8.116;2024-01-15T14:00:51;6.20;;;2.93;;
24163;SDS011;12319;49.204;8.116;2024-01-15T14:03:17;7.78;;;3.13;;
24163;SDS011;12319;49.204;8.116;2024-01-15T14:05:44;6.35;;;2.97;;
24163;SDS011;12319;49.204;8.116;2024-01-15T14:08:10;5.77;;;2.80;;
24163;SDS011;12319;49.204;8.116;2024-01-15T14:10:36;7.78;;;4.07;;
24163;SDS011;12319;49.204;8.116;2024-01-15T14:13:02;7.53;;;3.33;;
24163;SDS011;12319;49.204;8.116;2024-01-15T14:15:28;7.75;;;3.15;;
24163;SDS011;12319;49.204;8.116;2024-01-15T14:17:54;6.93;;;3.40;;
24163;SDS011;12319;49.204;8.116;2024-01-15T14:20:20;6.10;;;2.88;;
24163;SDS011;12319;49.204;8.116;2024-01-15T14:22:46;5.83;;;3.03;;
24163;SDS011;12319;49.204;8.116;2024-01-15T14:25:12;5.93;;;2.70;;
24163;SDS011;12319;49.204;8.116;2024-01-15T14:27:38;7.15;;;3.08;;
24163;SDS011;12319;49.204;8.116;2024-01-15T14:30:04;5.10;;;2.42;;
24163;SDS011;12319;49.204;8.116;2024-01-15T14:32:30;6.03;;;2.57;;
24163;SDS011;12319;49.204;8.116;2024-01-15T14:34:56;5.47;;;2.22;;
24163;SDS011;12319;49.204;8.116;2024-01-15T14:37:22;5.10;;;2.50;;
24163;SDS011;12319;49.204;8.116;2024-01-15T14:39:48;5.43;;;2.75;;
24163;SDS011;12319;49.204;8.116;2024-01-15T14:42:14;5.33;;;2.53;;
24163;SDS011;12319;49.204;8.116;2024-01-15T14:44:40;5.90;;;2.88;;
24163;SDS011;12319;49.204;8.116;2024-01-15T14:47:06;5.53;;;2.78;;
24163;SDS011;12319;49.204;8.116;2024-01-15T14:49:33;7.87;;;3.90;;
24163;SDS011;12319;49.204;8.116;2024-01-15T14:51:59;9.38;;;4.70;;
24163;SDS011;12319;49.204;8.116;2024-01-15T14:54:25;9.82;;;3.67;;
24163;SDS011;12319;49.204;8.116;2024-01-15T14:56:51;8.63;;;4.63;;
24163;SDS011;12319;49.204;8.116;2024-01-15T14:59:17;6.65;;;3.42;;